nws-alerts: Checking more than four warning/county codes can delay the loading of your pages. You should use a cron job to get the data.

Nearby METAR Reports

 

KLBE - Latrobe/Westmorl, Pennsylvania, USA
Distance from station: SE 16mi, 26km
Updated: Sun, 23-Sep-2018 4:15am EDT
Mostly cloudy
Mostly cloudy
 Wind from calm
Wind: Calm
Temperature: 57°F , 14°C
Dew Point: 57°F , 14°C
Humidity: 100%
Barometer: 30.17 inHg , 1021.7 hPa
Clouds: Mostly cloudy
Visibility: 10 miles , 16 km
Cloud details: Mostly cloudy 10000 ft
2018/09/23 08:15 KLBE 230815Z AUTO 00000KT 10SM BKN100 14/14 A3017 RMK AO2
KAGC - Pittsburgh/Alleg, Pennsylvania, USA
Distance from station: WSW 18mi, 30km
Updated: Sun, 23-Sep-2018 3:53am EDT
Overcast
Overcast
 Wind from E
Wind: E 3 mph , 6 km/h
Temperature: 55°F , 13°C
Dew Point: 52°F , 11°C
Humidity: 88%
Barometer: 30.16 inHg , 1021.3 hPa
Clouds: Overcast
Visibility: 10 miles , 16 km
Cloud details: Mostly cloudy 9500 ft
Overcast 12000 ft
2018/09/23 07:53 KAGC 230753Z 08003KT 10SM BKN095 OVC120 13/11 A3016 RMK AO2 SLP216 T01280111
 
KBTP - Butler Co., Pennsylvania, USA
Distance from station: NW 29mi, 47km
Updated: Sun, 23-Sep-2018 3:56am EDT
Clear
Clear
 Wind from NNE
Wind: NNE 5 mph , 7 km/h
Temperature: 52°F , 11°C
Dew Point: 48°F , 9°C
Humidity: 88%
Barometer: 30.19 inHg , 1022.4 hPa
Clouds: Clear
Visibility: 10 miles , 16 km
2018/09/23 07:56 KBTP 230756Z AUTO 03004KT 10SM CLR 11/09 A3019 RMK AO2 SLP229 T01060094
KIDI - Indiana/Stewart, Pennsylvania, USA
Distance from station: ENE 29mi, 47km
Updated: Sun, 23-Sep-2018 4:35am EDT
Overcast
Overcast
 Wind from E
Wind: E 6 mph , 9 km/h
Temperature: 55°F , 13°C
Dew Point: 52°F , 11°C
Humidity: 88%
Barometer: 30.21 inHg , 1023 hPa
Clouds: Overcast
Visibility: 10 miles , 16 km
Cloud details: Mostly cloudy 8000 ft
Overcast 9000 ft
2018/09/23 08:35 KIDI 230835Z AUTO 09005KT 10SM BKN080 OVC090 13/11 A3021 RMK A01
 
KPIT - Pittsburgh, Pennsylvania, USA
Distance from station: W 36mi, 57km
Updated: Sun, 23-Sep-2018 3:51am EDT
Overcast
Overcast
 Wind from ENE
Wind: ENE 3 mph , 6 km/h
Temperature: 54°F , 12°C
Dew Point: 52°F , 11°C
Humidity: 94%
Barometer: 30.16 inHg , 1021.3 hPa
Clouds: Overcast
Visibility: 10 miles , 16 km
Cloud details: Mostly cloudy 8500 ft
Overcast 20000 ft
2018/09/23 07:51 KPIT 230751Z 06003KT 10SM BKN085 OVC200 12/11 A3016 RMK AO2 SLP220 T01220111 $
KJST - Johnstown, Pennsylvania, USA
Distance from station: ESE 41mi, 66km
Updated: Sun, 23-Sep-2018 3:54am EDT
Light rain, Overcast
Light rain, Overcast
 Wind from NNW
Wind: NNW 3 mph , 6 km/h
Temperature: 52°F , 11°C
Dew Point: 50°F , 10°C
Humidity: 94%
Barometer: 30.21 inHg , 1023 hPa
Summary: Light rain
Clouds: Overcast
Visibility: 10 miles , 16 km
Cloud details: Few Clouds 400 ft
Overcast 8500 ft
2018/09/23 07:54 KJST 230754Z AUTO 34003KT 10SM -RA FEW004 OVC085 11/10 A3021 RMK AO2 SLP228 P0001 T01110100
 
KAFJ - Washington, Pennsylvania, USA
Distance from station: WSW 42mi, 68km
Updated: Wed, 19-Sep-2018 9:56am EDT
NOT Current
Light rain, Overcast
Light rain, Overcast
 Wind from varies
Wind: varies 5 mph , 7 km/h
Barometer: 30.06 inHg , 1017.9 hPa
Summary: Light rain
Clouds: Overcast
Visibility: 10 miles , 16 km
Cloud details: Mostly cloudy 600 ft
Mostly cloudy 3200 ft
Overcast 4500 ft
2018/09/19 13:56 KAFJ 191356Z AUTO VRB04KT 10SM -RA BKN006 BKN032 OVC045 A3006 RMK AO2 RAB40 CIG 004V009 SLPNO P0000 FZRANO $
KBVI - Beaver Falls Arp, Pennsylvania, USA
Distance from station: WNW 48mi, 77km
Updated: Sat, 22-Sep-2018 4:47pm EDT
NOT Current
Clear
Clear
 Wind from calm
Wind: Calm
Temperature: 59°F , 15°C
Dew Point: 50°F , 10°C
Humidity: 72%
Barometer: 30.23 inHg , 1023.7 hPa
Clouds: Clear
Visibility: 10 miles , 16 km
2018/09/22 20:47 KBVI 222047Z 00000KT 10SM CLR 15/10 A3023 RMK LAST